createdAt,value
2018-02-03T00:00:49.718Z,99317.88
2018-02-03T00:03:17.180Z,99316.29
2018-02-03T00:05:44.654Z,99320.90
2018-02-03T00:08:12.115Z,99316.57
2018-02-03T00:10:39.593Z,99314.78
2018-02-03T00:13:07.055Z,99313.27
2018-02-03T00:15:34.531Z,99308.18
2018-02-03T00:18:01.987Z,99307.48
2018-02-03T00:20:29.466Z,99309.94
2018-02-03T00:22:56.922Z,99311.27
2018-02-03T00:25:24.399Z,99312.78
2018-02-03T00:27:51.850Z,99311.79
2018-02-03T00:30:19.334Z,99309.38
2018-02-03T00:32:46.798Z,99321.41
2018-02-03T00:35:14.275Z,99318.50
2018-02-03T00:37:41.737Z,99321.00
2018-02-03T00:40:09.219Z,99326.09
2018-02-03T00:42:36.676Z,99319.36
2018-02-03T00:45:04.159Z,99318.33
2018-02-03T00:47:31.616Z,99320.11
2018-02-03T00:49:59.090Z,99322.41
2018-02-03T00:52:26.546Z,99324.41
2018-02-03T00:54:54.028Z,99326.65
2018-02-03T00:57:21.489Z,99320.66
2018-02-03T00:59:48.962Z,99319.56
2018-02-03T01:02:16.419Z,99313.75
2018-02-03T01:04:43.900Z,99308.11
2018-02-03T01:07:11.380Z,99310.80
2018-02-03T01:09:38.912Z,99302.27
2018-02-03T01:12:06.350Z,99307.87
2018-02-03T01:14:33.812Z,99309.32
2018-02-03T01:17:01.287Z,99305.61
2018-02-03T01:19:28.742Z,99309.73
2018-02-03T01:21:56.212Z,99309.14
2018-02-03T01:24:23.680Z,99314.20
2018-02-03T01:26:51.168Z,99313.23
2018-02-03T01:29:18.627Z,99308.97
2018-02-03T01:31:46.170Z,99311.23
2018-02-03T01:34:13.755Z,99318.87
2018-02-03T01:36:41.235Z,99322.30
2018-02-03T01:39:08.695Z,99326.22
2018-02-03T01:41:36.178Z,99329.48
2018-02-03T01:44:03.643Z,99328.69
2018-02-03T01:46:31.126Z,99334.60
2018-02-03T01:48:58.583Z,99333.27
2018-02-03T01:51:26.054Z,99333.70
2018-02-03T01:53:53.507Z,99327.20
2018-02-03T01:56:20.986Z,99333.03
2018-02-03T01:58:48.474Z,99333.14
2018-02-03T02:01:15.959Z,99327.88
2018-02-03T02:03:43.420Z,99337.09
2018-02-03T02:06:25.070Z,99337.86
2018-02-03T02:08:52.527Z,99342.45
2018-02-03T02:11:20.010Z,99344.80
2018-02-03T02:13:47.542Z,99341.30
2018-02-03T02:16:15.037Z,99344.90
2018-02-03T02:18:42.504Z,99349.33
2018-02-03T02:21:09.990Z,99344.45
2018-02-03T02:23:37.450Z,99352.23
2018-02-03T02:26:04.928Z,99353.36
2018-02-03T02:28:32.398Z,99354.91
2018-02-03T02:30:59.891Z,99355.91
2018-02-03T02:33:27.350Z,99353.57
2018-02-03T02:35:54.812Z,99348.72
2018-02-03T02:38:22.287Z,99349.55
2018-02-03T02:40:49.742Z,99350.55
2018-02-03T02:43:17.222Z,99355.58
2018-02-03T02:45:44.682Z,99351.17
2018-02-03T02:48:12.156Z,99350.05
2018-02-03T02:50:39.628Z,99346.70
2018-02-03T02:53:07.102Z,99347.53
2018-02-03T02:55:34.555Z,99343.28
2018-02-03T02:58:02.032Z,99339.83
2018-02-03T03:00:29.495Z,99347.58
2018-02-03T03:02:56.974Z,99341.87
2018-02-03T03:05:24.445Z,99339.27
2018-02-03T03:07:51.931Z,99345.55
2018-02-03T03:10:19.394Z,99336.00
2018-02-03T03:12:46.870Z,99339.25
2018-02-03T03:15:14.335Z,99333.27
2018-02-03T03:17:41.870Z,99337.52
2018-02-03T03:20:09.322Z,99335.58
2018-02-03T03:22:36.802Z,99334.58
2018-02-03T03:25:04.262Z,99334.16
2018-02-03T03:27:31.746Z,99331.08
2018-02-03T03:29:59.199Z,99335.89
2018-02-03T03:32:26.703Z,99337.84
2018-02-03T03:34:54.179Z,99342.88
2018-02-03T03:37:21.656Z,99344.13
2018-02-03T03:39:49.227Z,99345.03
2018-02-03T03:42:16.707Z,99346.66
2018-02-03T03:44:44.174Z,99341.92
2018-02-03T03:47:11.660Z,99347.99
2018-02-03T03:49:39.123Z,99349.14
2018-02-03T03:52:06.607Z,99349.08
2018-02-03T03:54:34.095Z,99347.30
2018-02-03T03:57:01.570Z,99344.06
2018-02-03T03:59:29.055Z,99348.98
2018-02-03T04:01:56.518Z,99342.95
2018-02-03T04:04:31.246Z,99342.30
2018-02-03T04:06:58.707Z,99340.02
2018-02-03T04:09:26.197Z,99337.50
2018-02-03T04:11:53.655Z,99333.02
2018-02-03T04:14:21.139Z,99322.91
2018-02-03T04:16:49.751Z,99317.70
2018-02-03T04:19:17.256Z,99324.78
2018-02-03T04:21:44.734Z,99318.27
2018-02-03T04:24:12.234Z,99316.62
2018-02-03T04:26:39.707Z,99310.80
2018-02-03T04:29:07.187Z,99316.55
2018-02-03T04:31:34.652Z,99320.38
2018-02-03T04:34:02.134Z,99323.88
2018-02-03T04:36:29.595Z,99315.53
2018-02-03T04:38:57.087Z,99311.98
2018-02-03T04:41:24.555Z,99311.17
2018-02-03T04:43:52.062Z,99317.95
2018-02-03T04:46:19.567Z,99314.58
2018-02-03T04:48:47.051Z,99316.53
2018-02-03T04:51:14.506Z,99322.71
2018-02-03T04:53:41.987Z,99321.61
2018-02-03T04:56:09.501Z,99316.92
2018-02-03T04:58:36.951Z,99310.41
2018-02-03T05:01:04.406Z,99314.67
2018-02-03T05:03:31.882Z,99314.83
2018-02-03T05:05:59.347Z,99304.16
2018-02-03T05:08:26.827Z,99301.89
2018-02-03T05:10:54.283Z,99307.46
2018-02-03T05:13:21.758Z,99304.78
2018-02-03T05:15:49.219Z,99302.81
2018-02-03T05:18:16.719Z,99304.36
2018-02-03T05:20:44.191Z,99296.98
2018-02-03T05:23:11.658Z,99301.28
2018-02-03T05:25:39.143Z,99291.92
2018-02-03T05:28:06.607Z,99296.29
2018-02-03T05:30:34.092Z,99296.75
2018-02-03T05:33:01.572Z,99296.08
2018-02-03T05:35:29.055Z,99295.37
2018-02-03T05:37:56.522Z,99293.27
2018-02-03T05:40:24.002Z,99291.82
2018-02-03T05:42:51.472Z,99289.86
2018-02-03T05:45:18.951Z,99288.09
2018-02-03T05:47:46.413Z,99287.83
2018-02-03T05:50:13.891Z,99290.92
2018-02-03T05:52:41.351Z,99293.00
2018-02-03T05:55:08.836Z,99288.40
2018-02-03T05:57:36.303Z,99297.30
2018-02-03T06:00:03.778Z,99292.70
2018-02-03T06:02:31.239Z,99290.59
2018-02-03T06:04:58.715Z,99291.23
2018-02-03T06:07:26.184Z,99292.41
2018-02-03T06:09:53.726Z,99284.13
2018-02-03T06:12:21.183Z,99290.47
2018-02-03T06:14:48.664Z,99279.71
2018-02-03T06:17:16.126Z,99285.84
2018-02-03T06:19:43.602Z,99283.81
2018-02-03T06:22:11.055Z,99278.44
2018-02-03T06:24:38.535Z,99283.38
2018-02-03T06:27:05.995Z,99285.68
2018-02-03T06:29:33.479Z,99292.95
2018-02-03T06:32:00.936Z,99293.68
2018-02-03T06:34:28.414Z,99288.41
2018-02-03T06:36:55.888Z,99288.29
2018-02-03T06:39:23.375Z,99287.06
2018-02-03T06:41:50.878Z,99295.42
2018-02-03T06:44:18.342Z,99292.75
2018-02-03T06:46:45.832Z,99294.78
2018-02-03T06:49:13.307Z,99290.48
2018-02-03T06:51:40.791Z,99296.09
2018-02-03T06:54:08.251Z,99297.43
2018-02-03T06:56:35.735Z,99299.20
2018-02-03T06:59:03.201Z,99293.92
2018-02-03T07:01:31.478Z,99296.55
2018-02-03T07:03:59.017Z,99290.14
2018-02-03T07:06:26.502Z,99293.81
2018-02-03T07:08:53.979Z,99294.83
2018-02-03T07:11:21.471Z,99294.95
2018-02-03T07:13:48.956Z,99294.34
2018-02-03T07:16:16.437Z,99297.05
2018-02-03T07:18:43.903Z,99295.27
2018-02-03T07:21:11.382Z,99288.06
2018-02-03T07:23:38.852Z,99289.33
2018-02-03T07:26:06.330Z,99288.24
2018-02-03T07:28:33.841Z,99289.17
2018-02-03T07:31:01.287Z,99287.75
2018-02-03T07:33:28.746Z,99288.94
2018-02-03T07:35:56.222Z,99289.22
2018-02-03T07:38:23.683Z,99288.66
2018-02-03T07:40:51.168Z,99287.81
2018-02-03T07:43:18.638Z,99285.47
2018-02-03T07:45:46.122Z,99290.84
2018-02-03T07:48:13.590Z,99294.63
2018-02-03T07:50:41.071Z,99294.58
2018-02-03T07:53:08.528Z,99292.84
2018-02-03T07:55:36.003Z,99293.28
2018-02-03T07:58:03.463Z,99293.07
2018-02-03T08:00:30.942Z,99292.17
2018-02-03T08:02:58.399Z,99279.77
2018-02-03T08:05:25.856Z,99278.28
2018-02-03T08:07:53.335Z,99282.66
2018-02-03T08:10:20.790Z,99275.98
2018-02-03T08:12:48.267Z,99276.31
2018-02-03T08:15:15.728Z,99278.95
2018-02-03T08:17:43.206Z,99278.47
2018-02-03T08:20:10.666Z,99280.69
2018-02-03T08:22:38.151Z,99279.32
2018-02-03T08:25:05.612Z,99284.46
2018-02-03T08:27:33.114Z,99270.06
2018-02-03T08:30:00.579Z,99273.19
2018-02-03T08:32:28.084Z,99271.95
2018-02-03T08:34:55.539Z,99272.05
2018-02-03T08:37:23.015Z,99269.94
2018-02-03T08:39:50.470Z,99274.31
2018-02-03T08:42:17.943Z,99272.34
2018-02-03T08:44:45.418Z,99271.39
2018-02-03T08:47:12.950Z,99266.89
2018-02-03T08:49:40.427Z,99274.70
2018-02-03T08:52:13.651Z,99275.25
2018-02-03T08:54:41.135Z,99274.91
2018-02-03T08:57:08.665Z,99273.14
2018-02-03T08:59:36.148Z,99271.21
2018-02-03T09:02:03.663Z,99277.25
2018-02-03T09:04:31.147Z,99279.67
2018-02-03T09:06:58.639Z,99272.50
2018-02-03T09:09:26.094Z,99276.23
2018-02-03T09:12:04.419Z,99273.83
2018-02-03T09:14:31.890Z,99277.02
2018-02-03T09:17:05.478Z,99273.31
2018-02-03T09:19:32.934Z,99269.44
2018-02-03T09:22:01.387Z,99270.87
2018-02-03T09:24:28.868Z,99269.80
2018-02-03T09:26:56.351Z,99266.70
2018-02-03T09:29:23.939Z,99265.44
2018-02-03T09:31:51.508Z,99267.09
2018-02-03T09:34:18.982Z,99266.67
2018-02-03T09:36:46.488Z,99260.06
2018-02-03T09:39:13.967Z,99262.61
2018-02-03T09:41:41.422Z,99260.09
2018-02-03T09:44:08.960Z,99260.97
2018-02-03T09:46:36.426Z,99254.77
2018-02-03T09:49:03.907Z,99261.97
2018-02-03T09:51:31.366Z,99263.52
2018-02-03T09:53:58.907Z,99261.91
2018-02-03T09:56:26.367Z,99258.24
2018-02-03T09:58:53.842Z,99263.52
2018-02-03T10:01:21.303Z,99266.78
2018-02-03T10:03:48.802Z,99264.53
2018-02-03T10:06:16.287Z,99253.61
2018-02-03T10:08:43.810Z,99260.44
2018-02-03T10:11:11.276Z,99255.41
2018-02-03T10:13:38.752Z,99254.61
2018-02-03T10:16:06.251Z,99269.20
2018-02-03T10:18:33.727Z,99262.61
2018-02-03T10:21:01.195Z,99259.32
2018-02-03T10:23:28.672Z,99259.94
2018-02-03T10:25:56.134Z,99257.91
2018-02-03T10:28:23.606Z,99253.44
2018-02-03T10:30:51.067Z,99254.05
2018-02-03T10:33:19.522Z,99249.28
2018-02-03T10:35:47.043Z,99242.23
2018-02-03T10:38:14.926Z,99245.21
2018-02-03T10:40:42.707Z,99244.02
2018-02-03T10:43:10.388Z,99241.47
2018-02-03T10:45:38.067Z,99238.09
2018-02-03T10:48:06.167Z,99235.11
2018-02-03T10:50:33.798Z,99234.13
2018-02-03T10:53:01.297Z,99235.36
2018-02-03T10:55:28.751Z,99236.28
2018-02-03T10:57:56.247Z,99229.75
2018-02-03T11:00:24.191Z,99232.31
2018-02-03T11:02:51.663Z,99233.34
2018-02-03T11:05:20.488Z,99216.08
2018-02-03T11:07:48.375Z,99217.34
2018-02-03T11:10:15.907Z,99214.67
2018-02-03T11:12:43.459Z,99205.77
2018-02-03T11:15:10.935Z,99202.52
2018-02-03T11:17:38.632Z,99196.52
2018-02-03T11:20:06.106Z,99202.41
2018-02-03T11:22:33.550Z,99193.73
2018-02-03T11:25:01.032Z,99191.56
2018-02-03T11:27:28.483Z,99184.42
2018-02-03T11:29:55.954Z,99183.33
2018-02-03T11:32:23.406Z,99183.67
2018-02-03T11:34:50.878Z,99182.08
2018-02-03T11:37:18.333Z,99179.41
2018-02-03T11:39:45.802Z,99184.92
2018-02-03T11:42:13.267Z,99180.22
2018-02-03T11:44:40.742Z,99178.87
2018-02-03T11:47:08.195Z,99176.33
2018-02-03T11:49:35.675Z,99179.53
2018-02-03T11:52:03.140Z,99179.24
2018-02-03T11:54:30.618Z,99180.16
2018-02-03T11:56:58.106Z,99176.50
2018-02-03T11:59:25.578Z,99179.95
2018-02-03T12:01:53.031Z,99177.69
2018-02-03T12:04:20.519Z,99174.78
2018-02-03T12:06:47.984Z,99169.98
2018-02-03T12:09:15.474Z,99178.40
2018-02-03T12:11:42.953Z,99174.36
2018-02-03T12:14:10.423Z,99168.47
2018-02-03T12:16:37.874Z,99172.18
2018-02-03T12:19:05.351Z,99169.13
2018-02-03T12:21:32.818Z,99164.96
2018-02-03T12:24:00.295Z,99164.84
2018-02-03T12:26:27.738Z,99166.82
2018-02-03T12:28:55.192Z,99158.61
2018-02-03T12:31:22.667Z,99157.34
2018-02-03T12:33:50.114Z,99157.80
2018-02-03T12:36:17.591Z,99161.30
2018-02-03T12:38:45.046Z,99150.97
2018-02-03T12:41:12.521Z,99151.09
2018-02-03T12:43:40.027Z,99149.42
2018-02-03T12:46:07.466Z,99138.18
2018-02-03T12:48:34.911Z,99137.02
2018-02-03T12:51:02.384Z,99131.87
2018-02-03T12:53:29.880Z,99135.98
2018-02-03T12:55:57.342Z,99139.35
2018-02-03T12:58:24.791Z,99134.75
2018-02-03T13:00:52.263Z,99124.73
2018-02-03T13:03:19.715Z,99123.81
2018-02-03T13:05:47.192Z,99127.27
2018-02-03T13:08:14.702Z,99124.27
2018-02-03T13:10:42.167Z,99123.09
2018-02-03T13:13:09.614Z,99123.66
2018-02-03T13:15:37.083Z,99119.48
2018-02-03T13:18:04.531Z,99128.17
2018-02-03T13:20:32.004Z,99118.52
2018-02-03T13:22:59.821Z,99121.41
2018-02-03T13:25:27.338Z,99122.86
2018-02-03T13:27:54.810Z,99122.08
2018-02-03T13:30:22.283Z,99126.67
2018-02-03T13:32:49.740Z,99125.85
2018-02-03T13:35:17.210Z,99121.94
2018-02-03T13:37:44.663Z,99119.03
2018-02-03T13:40:12.135Z,99124.64
2018-02-03T13:42:39.587Z,99122.06
2018-02-03T13:45:07.043Z,99123.43
2018-02-03T13:47:34.591Z,99120.59
2018-02-03T13:50:02.057Z,99120.73
2018-02-03T13:52:29.539Z,99122.34
2018-02-03T13:54:57.004Z,99125.00
2018-02-03T13:57:24.470Z,99126.48
2018-02-03T13:59:51.925Z,99122.28
2018-02-03T14:02:19.400Z,99118.98
2018-02-03T14:04:46.847Z,99119.59
2018-02-03T14:07:14.320Z,99121.36
2018-02-03T14:09:41.779Z,99119.37
2018-02-03T14:12:09.272Z,99120.10
2018-02-03T14:14:36.718Z,99119.84
2018-02-03T14:17:04.186Z,99125.58
2018-02-03T14:19:31.640Z,99123.42
2018-02-03T14:21:59.127Z,99124.59
2018-02-03T14:27:28.703Z,99125.47
2018-02-03T14:29:56.891Z,99126.86
2018-02-03T14:32:24.354Z,99128.75
2018-02-03T14:34:51.808Z,99128.31
2018-02-03T14:37:19.299Z,99133.92
2018-02-03T14:39:46.775Z,99134.34
2018-02-03T14:42:14.623Z,99131.59
2018-02-03T14:44:42.071Z,99126.33
2018-02-03T14:47:09.544Z,99128.03
2018-02-03T14:49:36.998Z,99117.81
2018-02-03T14:52:04.468Z,99125.35
2018-02-03T14:54:31.919Z,99124.42
2018-02-03T14:56:59.391Z,99120.95
2018-02-03T14:59:26.846Z,99123.08
2018-02-03T15:01:54.323Z,99124.63
2018-02-03T15:04:21.776Z,99120.59
2018-02-03T15:06:49.242Z,99118.95
2018-02-03T15:09:16.702Z,99114.08
2018-02-03T15:11:44.167Z,99120.50
2018-02-03T15:14:11.620Z,99112.58
2018-02-03T15:16:39.714Z,99111.96
2018-02-03T15:19:07.160Z,99110.86
2018-02-03T15:21:34.638Z,99109.59
2018-02-03T15:24:02.082Z,99106.47
2018-02-03T15:26:29.526Z,99103.92
2018-02-03T15:28:57.005Z,99109.25
2018-02-03T15:31:24.459Z,99104.05
2018-02-03T15:33:51.936Z,99103.63
2018-02-03T15:36:19.387Z,99108.42
2018-02-03T15:38:46.866Z,99105.73
2018-02-03T15:41:14.342Z,99111.70
2018-02-03T15:43:41.814Z,99113.05
2018-02-03T15:46:09.265Z,99116.16
2018-02-03T15:48:36.743Z,99115.88
2018-02-03T15:51:04.210Z,99113.26
2018-02-03T15:53:31.684Z,99117.30
2018-02-03T15:55:59.131Z,99114.66
2018-02-03T15:58:26.612Z,99120.39
2018-02-03T16:00:54.067Z,99116.42
2018-02-03T16:03:21.530Z,99121.12
2018-02-03T16:05:48.990Z,99118.81
2018-02-03T16:08:16.548Z,99116.42
2018-02-03T16:10:44.042Z,99128.22
2018-02-03T16:13:11.503Z,99122.95
2018-02-03T16:15:38.969Z,99125.84
2018-02-03T16:18:06.509Z,99133.78
2018-02-03T16:20:34.358Z,99128.52
2018-02-03T16:23:01.931Z,99126.23
2018-02-03T16:25:29.411Z,99122.53
2018-02-03T16:27:56.969Z,99135.08
2018-02-03T16:30:24.439Z,99135.77
2018-02-03T16:32:51.931Z,99133.61
2018-02-03T16:35:19.462Z,99130.98
2018-02-03T16:37:46.966Z,99134.44
2018-02-03T16:40:14.447Z,99139.43
2018-02-03T16:42:41.927Z,99143.76
2018-02-03T16:45:09.400Z,99147.32
2018-02-03T16:47:36.874Z,99149.84
2018-02-03T16:50:04.441Z,99146.86
2018-02-03T16:52:31.895Z,99151.42
2018-02-03T16:54:59.358Z,99150.02
2018-02-03T16:57:26.802Z,99151.29
2018-02-03T16:59:54.275Z,99148.86
2018-02-03T17:02:21.730Z,99151.78
2018-02-03T17:04:49.206Z,99156.25
2018-02-03T17:07:16.659Z,99164.73
2018-02-03T17:09:44.141Z,99165.20
2018-02-03T17:12:11.598Z,99170.71
2018-02-03T17:14:39.080Z,99168.73
2018-02-03T17:17:06.526Z,99171.65
2018-02-03T17:19:33.990Z,99165.21
2018-02-03T17:22:01.501Z,99172.73
2018-02-03T17:24:29.073Z,99170.87
2018-02-03T17:26:56.535Z,99176.77
2018-02-03T17:29:24.603Z,99179.20
2018-02-03T17:31:52.064Z,99184.61
2018-02-03T17:34:19.536Z,99189.11
2018-02-03T17:36:53.090Z,99189.52
2018-02-03T17:39:20.562Z,99195.94
2018-02-03T17:41:48.023Z,99196.75
2018-02-03T17:44:15.504Z,99193.55
2018-02-03T17:46:48.614Z,99203.74
2018-02-03T17:49:16.104Z,99202.19
2018-02-03T17:51:43.755Z,99200.09
2018-02-03T17:54:11.243Z,99205.14
2018-02-03T17:56:44.206Z,99211.56
2018-02-03T17:59:11.688Z,99206.38
2018-02-03T18:01:39.178Z,99208.06
2018-02-03T18:04:06.660Z,99212.92
2018-02-03T18:06:39.793Z,99215.89
2018-02-03T18:09:07.283Z,99215.83
2018-02-03T18:11:34.826Z,99218.28
2018-02-03T18:14:02.340Z,99219.54
2018-02-03T18:16:29.815Z,99223.41
2018-02-03T18:18:57.294Z,99215.42
2018-02-03T18:21:24.746Z,99222.00
2018-02-03T18:23:52.294Z,99221.92
2018-02-03T18:26:19.816Z,99230.05
2018-02-03T18:28:47.279Z,99222.64
2018-02-03T18:31:14.778Z,99223.97
2018-02-03T18:33:42.459Z,99232.59
2018-02-03T18:36:09.934Z,99232.88
2018-02-03T18:38:37.396Z,99241.30
2018-02-03T18:41:04.874Z,99236.36
2018-02-03T18:43:32.682Z,99236.77
2018-02-03T18:46:00.183Z,99243.33
2018-02-03T18:48:27.696Z,99243.41
2018-02-03T18:50:56.285Z,99245.60
2018-02-03T18:53:24.192Z,99251.23
2018-02-03T18:55:52.151Z,99248.90
2018-02-03T18:58:19.742Z,99246.22
2018-02-03T19:00:47.242Z,99251.41
2018-02-03T19:03:15.194Z,99257.17
2018-02-03T19:05:43.240Z,99250.17
2018-02-03T19:08:13.306Z,99249.83
2018-02-03T19:10:41.858Z,99257.77
2018-02-03T19:13:09.624Z,99252.58
2018-02-03T19:15:37.668Z,99253.33
2018-02-03T19:18:06.510Z,99259.52
2018-02-03T19:20:34.130Z,99255.66
2018-02-03T19:23:02.465Z,99253.27
2018-02-03T19:25:31.562Z,99256.45
2018-02-03T19:27:59.051Z,99257.23
2018-02-03T19:30:26.834Z,99259.64
2018-02-03T19:32:55.651Z,99259.59
2018-02-03T19:35:23.487Z,99265.78
2018-02-03T19:37:50.945Z,99273.41
2018-02-03T19:40:19.295Z,99265.98
2018-02-03T19:42:47.150Z,99271.29
2018-02-03T19:45:14.810Z,99279.19
2018-02-03T19:47:44.486Z,99284.54
2018-02-03T19:50:12.880Z,99278.66
2018-02-03T19:52:40.940Z,99281.89
2018-02-03T19:55:10.195Z,99278.41
2018-02-03T19:57:39.502Z,99282.56
2018-02-03T20:00:09.015Z,99282.22
2018-02-03T20:02:40.264Z,99286.14
2018-02-03T20:05:08.607Z,99286.98
2018-02-03T20:07:38.710Z,99284.39
2018-02-03T20:10:07.473Z,99289.84
2018-02-03T20:12:35.302Z,99288.17
2018-02-03T20:15:03.388Z,99296.44
2018-02-03T20:17:31.404Z,99293.86
2018-02-03T20:19:58.958Z,99294.66
2018-02-03T20:22:27.032Z,99295.59
2018-02-03T20:24:55.611Z,99295.45
2018-02-03T20:27:23.119Z,99293.09
2018-02-03T20:29:51.111Z,99293.60
2018-02-03T20:32:18.732Z,99290.80
2018-02-03T20:34:46.187Z,99297.55
2018-02-03T20:37:14.314Z,99300.56
2018-02-03T20:39:42.183Z,99302.78
2018-02-03T20:42:10.951Z,99302.44
2018-02-03T20:44:38.914Z,99299.89
2018-02-03T20:47:06.885Z,99316.76
2018-02-03T20:49:34.624Z,99314.41
2018-02-03T20:52:02.849Z,99321.55
2018-02-03T20:54:30.516Z,99320.28
2018-02-03T20:56:58.035Z,99320.80
2018-02-03T20:59:25.785Z,99319.54
2018-02-03T21:01:53.306Z,99330.73
2018-02-03T21:04:21.292Z,99324.72
2018-02-03T21:06:49.764Z,99331.61
2018-02-03T21:09:18.471Z,99336.86
2018-02-03T21:11:46.031Z,99337.13
2018-02-03T21:14:13.491Z,99339.19
2018-02-03T21:16:40.992Z,99342.87
2018-02-03T21:19:08.822Z,99349.02
2018-02-03T21:21:36.414Z,99356.72
2018-02-03T21:24:04.686Z,99358.39
2018-02-03T21:26:32.664Z,99363.31
2018-02-03T21:29:00.579Z,99362.31
2018-02-03T21:31:28.054Z,99369.67
2018-02-03T21:33:55.518Z,99368.98
2018-02-03T21:36:23.391Z,99368.77
2018-02-03T21:38:53.123Z,99373.95
2018-02-03T21:41:20.846Z,99369.73
2018-02-03T21:43:48.406Z,99369.11
2018-02-03T21:46:15.901Z,99379.36
2018-02-03T21:48:43.410Z,99374.93
2018-02-03T21:51:11.289Z,99373.88
2018-02-03T21:53:39.177Z,99382.63
2018-02-03T21:56:06.690Z,99388.31
2018-02-03T22:01:06.897Z,99400.45
2018-02-03T22:03:34.483Z,99402.72
2018-02-03T22:06:02.003Z,99405.63
2018-02-03T22:08:29.503Z,99407.99
2018-02-03T22:10:57.046Z,99408.59
2018-02-03T22:13:24.925Z,99415.92
2018-02-03T22:15:52.382Z,99417.37
2018-02-03T22:18:19.856Z,99423.23
2018-02-03T22:20:47.320Z,99418.70
2018-02-03T22:23:14.839Z,99421.98
2018-02-03T22:25:42.343Z,99426.92
2018-02-03T22:28:09.898Z,99428.77
2018-02-03T22:30:37.411Z,99429.78
2018-02-03T22:33:04.951Z,99429.17
2018-02-03T22:35:33.030Z,99432.34
2018-02-03T22:38:00.646Z,99441.89
2018-02-03T22:40:28.106Z,99445.52
2018-02-03T22:42:55.663Z,99445.27
2018-02-03T22:45:23.173Z,99446.60
2018-02-03T22:47:50.737Z,99445.06
2018-02-03T22:50:19.489Z,99450.21
2018-02-03T22:52:47.071Z,99441.89
2018-02-03T22:55:14.952Z,99453.77
2018-02-03T22:57:42.427Z,99451.87
2018-02-03T23:00:09.931Z,99456.62
2018-02-03T23:02:42.902Z,99452.81
2018-02-03T23:05:10.368Z,99461.39
2018-02-03T23:07:37.827Z,99462.98
2018-02-03T23:10:05.311Z,99464.61
2018-02-03T23:12:32.885Z,99458.56
2018-02-03T23:15:00.370Z,99464.86
2018-02-03T23:17:27.841Z,99466.17
2018-02-03T23:19:55.314Z,99469.16
2018-02-03T23:22:23.111Z,99469.67
2018-02-03T23:24:50.590Z,99472.20
2018-02-03T23:27:18.298Z,99476.88
2018-02-03T23:29:45.787Z,99477.30
2018-02-03T23:32:13.243Z,99479.74
2018-02-03T23:34:40.721Z,99482.75
2018-02-03T23:37:08.191Z,99490.85
2018-02-03T23:39:35.667Z,99488.69
2018-02-03T23:42:03.118Z,99489.25
2018-02-03T23:44:30.591Z,99494.79
2018-02-03T23:46:58.047Z,99494.06
2018-02-03T23:49:25.532Z,99498.39
2018-02-03T23:51:52.996Z,99505.83
2018-02-03T23:54:20.477Z,99507.45
2018-02-03T23:56:47.932Z,99509.66
2018-02-03T23:59:15.436Z,99512.54
